Time;durP1;ratioP1;P1;durP2;ratioP2;P2;SDS_P1;SDS_P2;PMS_P1;PMS_P2;Temp;Humidity;BMP_temperature;BMP_pressure;BME280_temperature;BME280_humidity;BME280_pressure;Samples;Min_cycle;Max_cycle;Signal;HPM_P1;HPM_P2
2021/12/05 00:21:37;;;;;;;5.13;1.05;;;14.60;48.20;;;;;;5088861;28;20395;-65
2021/12/05 00:23:50;;;;;;;2.53;0.82;;;14.60;48.20;;;;;;5088837;28;20052;-65
2021/12/05 00:26:19;;;;;;;2.30;0.75;;;14.60;48.30;;;;;;5087544;28;20040;-64
2021/12/05 00:54:44;;;;;;;2.75;0.88;;;14.50;48.30;;;;;;5152637;27;20524;-65
2021/12/05 01:02:17;;;;;;;2.85;0.90;;;14.60;48.30;;;;;;5128738;28;20047;-65
2021/12/05 01:05:02;;;;;;;;;;;14.60;48.30;;;;;;5129272;28;20501;-65
2021/12/05 01:10:48;;;;;;;3.72;0.93;;;14.50;48.30;;;;;;5128653;28;20043;-65
2021/12/05 01:15:58;;;;;;;2.80;0.80;;;14.50;48.20;;;;;;5128824;28;20139;-66
2021/12/05 01:18:25;;;;;;;3.70;0.80;;;14.50;48.30;;;;;;5129791;28;20119;-64
2021/12/05 01:20:59;;;;;;;4.50;0.70;;;14.60;48.30;;;;;;5129919;28;20490;-65
2021/12/05 01:26:20;;;;;;;3.40;0.43;;;14.70;48.00;;;;;;5130291;27;20354;-65
2021/12/05 01:58:59;;;;;;;5.15;1.45;;;14.40;48.60;;;;;;5130152;27;20366;-65
2021/12/05 02:15:38;;;;;;;3.83;1.80;;;14.50;48.40;;;;;;5087863;28;20545;-65
2021/12/05 02:41:17;;;;;;;3.38;1.58;;;14.50;48.40;;;;;;5108266;28;20048;-65
2021/12/05 02:43:31;;;;;;;5.53;1.63;;;14.50;48.40;;;;;;5108398;28;20047;-65
2021/12/05 02:45:58;;;;;;;5.65;1.90;;;14.50;48.40;;;;;;5108659;28;20046;-65
2021/12/05 02:48:27;;;;;;;4.55;2.20;;;14.50;48.40;;;;;;5108642;28;20043;-65
2021/12/05 02:50:53;;;;;;;4.75;2.28;;;14.50;48.40;;;;;;5108508;28;20048;-65
2021/12/05 02:53:22;;;;;;;5.63;2.00;;;14.50;48.30;;;;;;5108533;28;20441;-65
2021/12/05 02:55:51;;;;;;;3.60;1.80;;;14.50;48.30;;;;;;5108031;28;20055;-65
2021/12/05 03:01:10;;;;;;;8.48;2.50;;;14.50;48.20;;;;;;5129588;27;20765;-65
2021/12/05 03:03:35;;;;;;;5.40;1.65;;;14.50;48.20;;;;;;5129039;28;20047;-65
2021/12/05 03:06:14;;;;;;;4.22;1.92;;;14.40;48.20;;;;;;5129095;27;20509;-65
2021/12/05 03:08:40;;;;;;;5.40;1.83;;;14.40;48.10;;;;;;5129020;28;20051;-65
2021/12/05 03:11:07;;;;;;;8.20;1.75;;;14.40;48.10;;;;;;5129032;28;20043;-66
2021/12/05 03:13:35;;;;;;;5.55;2.25;;;14.40;48.10;;;;;;5128798;28;20047;-65
2021/12/05 03:16:03;;;;;;;4.00;1.63;;;14.40;48.10;;;;;;5128695;28;20513;-65
2021/12/05 03:18:29;;;;;;;4.22;1.65;;;14.40;48.00;;;;;;5130018;28;20482;-65
2021/12/05 03:20:55;;;;;;;5.05;2.13;;;14.40;48.00;;;;;;5128594;28;20122;-65
2021/12/05 03:23:20;;;;;;;5.57;2.00;;;14.40;47.90;;;;;;5128862;28;20368;-65
2021/12/05 03:25:46;;;;;;;4.55;1.60;;;14.40;47.90;;;;;;5128818;27;20042;-65
2021/12/05 03:28:12;;;;;;;8.00;2.28;;;14.40;47.90;;;;;;5128790;28;20382;-65
2021/12/05 03:30:40;;;;;;;5.60;1.67;;;14.40;47.80;;;;;;5128746;28;20039;-65
2021/12/05 03:33:06;;;;;;;7.47;1.83;;;14.40;48.60;;;;;;5128575;28;20112;-64
2021/12/05 03:35:35;;;;;;;5.32;2.17;;;14.40;47.80;;;;;;5129682;28;20085;-65
2021/12/05 03:38:01;;;;;;;4.68;1.63;;;14.40;47.90;;;;;;5128464;28;20402;-65
2021/12/05 03:40:28;;;;;;;7.22;2.42;;;14.40;47.80;;;;;;5129747;28;20039;-65
2021/12/05 03:42:57;;;;;;;5.63;1.77;;;14.40;47.80;;;;;;5128398;28;20130;-65
2021/12/05 03:45:28;;;;;;;4.15;1.58;;;14.40;47.80;;;;;;5128207;28;20040;-65
2021/12/05 03:47:56;;;;;;;5.90;2.05;;;14.40;47.80;;;;;;5129360;28;20302;-65
2021/12/05 03:50:22;;;;;;;4.68;1.48;;;14.30;47.80;;;;;;5128127;28;20486;-65
2021/12/05 03:52:49;;;;;;;7.25;1.85;;;14.30;47.80;;;;;;5127155;28;20047;-65
2021/12/05 03:55:15;;;;;;;7.13;1.88;;;14.30;47.80;;;;;;5127993;27;20031;-65
2021/12/05 03:57:41;;;;;;;5.97;1.63;;;14.30;47.80;;;;;;5128169;28;20495;-65
2021/12/05 04:00:13;;;;;;;6.10;1.58;;;14.30;47.80;;;;;;5127508;28;20059;-65
2021/12/05 04:02:39;;;;;;;5.97;1.40;;;14.40;47.80;;;;;;5128127;28;20049;-65
2021/12/05 04:05:05;;;;;;;6.00;1.85;;;14.30;47.70;;;;;;5127803;28;20398;-65
2021/12/05 04:07:33;;;;;;;4.78;1.80;;;14.30;47.60;;;;;;5127583;28;20506;-65
2021/12/05 04:09:59;;;;;;;5.10;1.83;;;14.30;47.60;;;;;;5127983;28;20047;-65
2021/12/05 04:12:25;;;;;;;4.35;1.67;;;14.30;47.60;;;;;;5113626;28;20372;-65
2021/12/05 04:14:54;;;;;;;6.53;2.13;;;14.20;47.60;;;;;;5115268;28;20470;-65
2021/12/05 04:17:21;;;;;;;6.40;2.10;;;14.20;47.60;;;;;;5114136;28;20114;-64
2021/12/05 04:19:48;;;;;;;5.03;1.48;;;14.20;47.60;;;;;;5113824;28;20375;-64
2021/12/05 04:22:14;;;;;;;6.28;1.63;;;14.20;47.50;;;;;;5113994;28;20382;-65
2021/12/05 04:24:40;;;;;;;4.13;1.95;;;14.20;47.40;;;;;;5113994;28;20050;-65
2021/12/05 04:27:07;;;;;;;4.95;1.35;;;14.20;47.40;;;;;;5113860;28;20049;-65
2021/12/05 04:29:33;;;;;;;5.20;1.23;;;14.20;47.50;;;;;;5114918;28;20478;-65
2021/12/05 04:32:00;;;;;;;4.93;2.13;;;14.20;47.50;;;;;;5113905;28;20039;-66
2021/12/05 04:34:26;;;;;;;6.38;1.40;;;14.20;47.50;;;;;;5114765;28;20506;-65
2021/12/05 04:36:56;;;;;;;4.85;1.38;;;14.20;47.40;;;;;;5113630;28;20028;-66
2021/12/05 04:39:24;;;;;;;3.65;1.38;;;14.20;47.40;;;;;;5114805;28;20047;-65
2021/12/05 04:41:50;;;;;;;4.05;1.30;;;14.20;47.40;;;;;;5114706;28;20096;-65
2021/12/05 04:44:17;;;;;;;4.07;1.30;;;14.20;47.30;;;;;;5113673;28;20040;-65
2021/12/05 04:46:46;;;;;;;4.18;1.05;;;14.10;47.30;;;;;;5113560;28;20054;-67
2021/12/05 04:49:12;;;;;;;4.70;1.42;;;14.10;47.30;;;;;;5112524;28;20490;-65
2021/12/05 04:51:41;;;;;;;3.25;1.50;;;14.10;47.70;;;;;;5113394;28;20051;-65
2021/12/05 04:54:10;;;;;;;3.65;1.33;;;14.10;47.30;;;;;;5114413;28;20040;-65
2021/12/05 04:56:37;;;;;;;3.85;1.23;;;14.20;47.30;;;;;;5114427;28;20609;-65
2021/12/05 04:59:12;;;;;;;3.13;1.33;;;14.10;47.20;;;;;;5112940;28;20072;-65
2021/12/05 05:01:39;;;;;;;4.78;1.33;;;14.10;47.10;;;;;;5113047;28;20126;-65
2021/12/05 05:04:12;;;;;;;4.93;1.50;;;14.10;47.10;;;;;;5114161;28;20475;-65
2021/12/05 05:06:38;;;;;;;3.63;1.25;;;14.10;47.10;;;;;;5113095;28;20047;-65
2021/12/05 05:09:07;;;;;;;6.88;1.70;;;14.10;47.00;;;;;;5114232;28;20168;-65
2021/12/05 05:11:32;;;;;;;2.80;1.10;;;14.10;46.90;;;;;;5112813;28;20130;-65
2021/12/05 05:13:58;;;;;;;3.83;1.38;;;14.10;46.90;;;;;;5113002;28;20077;-65
2021/12/05 05:16:26;;;;;;;4.97;1.23;;;14.20;46.90;;;;;;5113325;28;20039;-66
2021/12/05 05:18:56;;;;;;;4.97;1.33;;;14.10;46.80;;;;;;5112533;28;20589;-65
2021/12/05 05:21:38;;;;;;;4.70;1.47;;;14.10;46.80;;;;;;5112930;28;20121;-65
2021/12/05 05:24:20;;;;;;;3.05;1.23;;;14.10;46.80;;;;;;5113137;28;20114;-65
2021/12/05 05:27:10;;;;;;;5.13;1.75;;;14.10;46.80;;;;;;5113752;28;20069;-66
2021/12/05 05:29:51;;;;;;;4.15;1.08;;;14.00;46.90;;;;;;5112092;28;20059;-65
2021/12/05 05:41:18;;;;;;;4.25;1.25;;;14.00;47.10;;;;;;5111973;28;20051;-65
2021/12/05 05:51:28;;;;;;;6.25;1.25;;;13.90;47.10;;;;;;5130246;27;20437;-65
2021/12/05 05:53:54;;;;;;;5.68;1.30;;;13.90;47.10;;;;;;5129050;27;20036;-65
2021/12/05 05:56:23;;;;;;;3.13;1.30;;;13.90;47.10;;;;;;5128893;28;20042;-65
2021/12/05 05:59:04;;;;;;;3.13;0.95;;;13.90;47.10;;;;;;5128543;28;20036;-65
2021/12/05 06:04:13;;;;;;;5.18;0.98;;;14.00;47.00;;;;;;5130258;27;20860;-65
2021/12/05 06:06:38;;;;;;;6.38;1.70;;;14.00;47.00;;;;;;5130221;27;20043;-65
2021/12/05 06:09:05;;;;;;;5.00;1.23;;;14.00;47.00;;;;;;5128942;28;20398;-65
2021/12/05 06:11:30;;;;;;;2.92;1.23;;;14.00;47.00;;;;;;5129051;28;20047;-65
2021/12/05 06:13:56;;;;;;;3.55;1.20;;;13.90;46.90;;;;;;5128356;28;20039;-65
2021/12/05 06:16:22;;;;;;;4.80;1.55;;;14.00;47.10;;;;;;5130084;28;20408;-66
2021/12/05 06:18:50;;;;;;;4.93;1.17;;;14.00;47.10;;;;;;5130152;28;20038;-65
2021/12/05 06:21:17;;;;;;;5.63;1.33;;;14.00;47.10;;;;;;5128987;28;20046;-65
2021/12/05 06:23:44;;;;;;;5.25;1.40;;;14.00;47.10;;;;;;5128569;28;20054;-65
2021/12/05 06:26:14;;;;;;;5.53;1.70;;;13.90;47.10;;;;;;5128845;28;20432;-65
2021/12/05 06:28:44;;;;;;;4.53;1.55;;;13.90;47.30;;;;;;5128813;28;20153;-65
2021/12/05 06:31:24;;;;;;;6.03;1.50;;;13.90;47.30;;;;;;5128803;28;20551;-65
2021/12/05 06:39:59;;;;;;;3.78;1.27;;;14.00;47.30;;;;;;5130176;27;20422;-65
2021/12/05 06:42:35;;;;;;;4.25;1.77;;;14.00;47.40;;;;;;5128904;28;20051;-65
2021/12/05 06:47:47;;;;;;;5.10;1.38;;;14.00;47.40;;;;;;5128820;27;20051;-65
2021/12/05 06:50:13;;;;;;;7.28;2.08;;;14.00;47.40;;;;;;5128876;28;20040;-65
2021/12/05 06:52:38;;;;;;;6.75;1.48;;;14.00;47.50;;;;;;5129033;27;20039;-65
2021/12/05 06:55:07;;;;;;;5.05;1.63;;;13.90;47.50;;;;;;5129952;27;20074;-65
2021/12/05 06:57:33;;;;;;;6.35;2.03;;;13.90;47.60;;;;;;5145995;27;20089;-65
2021/12/05 07:00:00;;;;;;;5.20;1.40;;;14.00;47.60;;;;;;5129130;28;20424;-65
2021/12/05 07:02:25;;;;;;;5.35;1.40;;;14.00;47.60;;;;;;5129879;27;20119;-65
2021/12/05 07:05:25;;;;;;;4.63;1.40;;;14.00;47.60;;;;;;5128472;28;20548;-65
2021/12/05 07:07:39;;;;;;;6.88;1.70;;;14.00;47.60;;;;;;5129224;28;20053;-65
2021/12/05 07:10:07;;;;;;;3.88;1.13;;;14.00;47.70;;;;;;5128349;28;20047;-66
2021/12/05 07:15:27;;;;;;;4.68;1.33;;;14.00;47.80;;;;;;5130179;27;20354;-66
2021/12/05 07:23:49;;;;;;;3.60;1.30;;;14.00;47.90;;;;;;5150956;27;20103;-65
2021/12/05 07:43:04;;;;;;;6.15;1.40;;;13.90;48.20;;;;;;5130467;27;20386;-65
2021/12/05 07:45:36;;;;;;;3.20;1.42;;;13.90;48.30;;;;;;5129322;28;20051;-65
2021/12/05 07:48:15;;;;;;;4.15;1.80;;;13.90;48.30;;;;;;5128919;28;20084;-65
2021/12/05 07:50:50;;;;;;;5.45;2.28;;;13.90;48.30;;;;;;5128848;28;20122;-65
2021/12/05 07:53:24;;;;;;;3.95;1.50;;;14.00;48.40;;;;;;5130262;27;20602;-65
2021/12/05 07:55:54;;;;;;;3.70;1.33;;;13.90;48.40;;;;;;5128999;28;20039;-65
2021/12/05 07:58:34;;;;;;;3.53;1.35;;;13.90;48.40;;;;;;5130041;27;20043;-65
2021/12/05 08:01:24;;;;;;;5.63;1.63;;;13.90;48.40;;;;;;5128916;28;20393;-65
2021/12/05 08:15:06;;;;;;;4.38;1.45;;;14.00;48.60;;;;;;5128249;28;20092;-65
2021/12/05 08:17:32;;;;;;;3.97;1.80;;;14.00;48.60;;;;;;5128497;28;20047;-65
2021/12/05 08:19:58;;;;;;;5.43;1.83;;;13.90;48.70;;;;;;5128358;28;20468;-65
2021/12/05 08:22:26;;;;;;;5.72;1.67;;;14.00;48.70;;;;;;5128210;27;20043;-65
2021/12/05 08:24:52;;;;;;;5.30;1.42;;;13.90;48.70;;;;;;5128588;28;20106;-65
2021/12/05 08:27:17;;;;;;;4.82;1.27;;;14.00;48.80;;;;;;5128148;28;20118;-65
2021/12/05 08:29:49;;;;;;;3.88;1.05;;;14.00;48.80;;;;;;5128459;28;20035;-65
2021/12/05 08:32:34;;;;;;;3.63;1.52;;;13.90;48.70;;;;;;5128453;28;20430;-65
2021/12/05 08:35:12;;;;;;;4.07;1.33;;;14.00;48.70;;;;;;5128350;28;20058;-65
2021/12/05 08:38:16;;;;;;;4.40;1.38;;;14.00;48.70;;;;;;5129255;27;20047;-65
2021/12/05 08:46:16;;;;;;;5.10;1.00;;;14.00;48.80;;;;;;5089752;27;20406;-65
2021/12/05 09:30:48;;;;;;;3.40;1.38;;;14.00;49.20;;;;;;5130221;27;20440;-65
2021/12/05 10:12:49;;;;;;;4.75;0.88;;;13.90;49.70;;;;;;5130294;27;20349;-65
2021/12/05 10:18:02;;;;;;;3.92;0.80;;;13.90;49.70;;;;;;5130347;27;20395;-65
2021/12/05 10:26:38;;;;;;;4.10;0.75;;;13.90;49.90;;;;;;5128918;28;20195;-65
2021/12/05 10:37:48;;;;;;;2.60;0.50;;;13.90;50.00;;;;;;5129793;28;20058;-65
2021/12/05 10:40:21;;;;;;;3.33;0.40;;;13.90;50.00;;;;;;5128750;28;20047;-66
2021/12/05 10:42:50;;;;;;;3.10;0.88;;;13.90;50.00;;;;;;5128804;28;20088;-65
2021/12/05 10:48:08;;;;;;;2.83;0.57;;;14.00;50.00;;;;;;5109087;27;20322;-66
2021/12/05 10:50:52;;;;;;;1.50;0.50;;;14.00;50.00;;;;;;5108477;28;20044;-65
2021/12/05 11:04:27;;;;;;;1.90;0.57;;;13.90;50.30;;;;;;5089492;27;20377;-66
2021/12/05 11:12:32;;;;;;;1.30;0.50;;;14.00;50.40;;;;;;5130167;27;20391;-65
2021/12/05 11:15:02;;;;;;;2.72;0.60;;;14.00;50.50;;;;;;5129252;28;20364;-65
2021/12/05 11:17:32;;;;;;;2.17;0.50;;;14.00;50.70;;;;;;5129149;28;20048;-66
2021/12/05 11:22:46;;;;;;;2.75;0.55;;;14.00;50.70;;;;;;5153028;27;1156113;-65
2021/12/05 11:25:15;;;;;;;;;;;13.90;50.80;;;;;;5153897;27;20038;-65
2021/12/05 11:30:23;;;;;;;1.55;0.88;;;14.00;50.80;;;;;;5130265;27;20387;-66
2021/12/05 11:33:12;;;;;;;2.20;0.40;;;14.00;50.90;;;;;;5129118;28;20047;-65
2021/12/05 11:35:46;;;;;;;3.63;0.85;;;14.00;50.80;;;;;;5128551;28;20467;-66
2021/12/05 11:46:27;;;;;;;1.73;0.60;;;14.00;50.70;;;;;;5156841;27;1166983;-65
2021/12/05 11:49:13;;;;;;;3.15;0.57;;;14.10;50.70;;;;;;5153077;27;20047;-65
2021/12/05 11:51:44;;;;;;;2.28;0.65;;;14.00;50.70;;;;;;5171683;27;20034;-65
2021/12/05 11:54:12;;;;;;;;;;;14.00;50.70;;;;;;5153708;27;20077;-65
2021/12/05 12:15:45;;;;;;;2.70;0.47;;;14.00;50.70;;;;;;5130271;27;20349;-66
2021/12/05 12:18:23;;;;;;;2.42;0.30;;;14.00;50.50;;;;;;5129186;28;20043;-66
2021/12/05 12:20:52;;;;;;;2.00;0.40;;;14.00;50.40;;;;;;5128792;28;20431;-65
2021/12/05 12:23:22;;;;;;;2.75;0.30;;;14.00;50.50;;;;;;5128893;28;20050;-65
2021/12/05 12:25:52;;;;;;;1.52;0.30;;;14.00;50.40;;;;;;5129028;28;20079;-66
2021/12/05 12:28:19;;;;;;;2.47;0.50;;;14.00;50.40;;;;;;5129039;27;20043;-65
2021/12/05 12:30:49;;;;;;;1.45;0.30;;;14.00;50.50;;;;;;5128897;28;20081;-65
2021/12/05 12:33:21;;;;;;;3.10;0.30;;;14.00;50.50;;;;;;5128666;28;20054;-65
2021/12/05 12:35:48;;;;;;;1.60;0.65;;;14.00;50.60;;;;;;5128768;28;20046;-65
2021/12/05 12:38:21;;;;;;;2.85;0.32;;;13.90;50.60;;;;;;5128634;28;20053;-65
2021/12/05 12:54:55;;;;;;;2.22;0.35;;;13.90;50.60;;;;;;5150932;27;20107;-66
2021/12/05 13:02:57;;;;;;;0.95;0.40;;;13.90;50.70;;;;;;5130309;27;20402;-65
2021/12/05 13:11:14;;;;;;;1.55;0.22;;;13.90;51.00;;;;;;5128786;28;20126;-65
2021/12/05 13:13:44;;;;;;;1.52;0.30;;;14.00;50.90;;;;;;5129186;28;20122;-65
2021/12/05 13:16:19;;;;;;;1.77;0.28;;;14.00;50.80;;;;;;5128878;28;20044;-65
2021/12/05 13:18:48;;;;;;;2.25;0.38;;;14.00;50.70;;;;;;5128890;28;20482;-65
2021/12/05 13:23:53;;;;;;;2.17;0.22;;;14.00;50.60;;;;;;5130394;27;20440;-66
2021/12/05 13:26:42;;;;;;;1.48;0.40;;;14.00;50.60;;;;;;5128889;28;20047;-65
2021/12/05 13:29:26;;;;;;;1.08;0.40;;;14.00;50.70;;;;;;5130600;27;20104;-65
2021/12/05 13:50:45;;;;;;;1.20;0.20;;;13.90;50.80;;;;;;5130371;27;20398;-65
2021/12/05 13:58:41;;;;;;;1.10;0.32;;;13.90;50.80;;;;;;5156497;27;1168351;-65
2021/12/05 14:09:54;;;;;;;1.50;0.43;;;13.90;50.80;;;;;;5152548;27;1158443;-66
2021/12/05 14:12:29;;;;;;;0.57;0.30;;;13.90;50.80;;;;;;5153491;27;20042;-65
2021/12/05 14:14:59;;;;;;;0.90;0.30;;;13.90;50.80;;;;;;5153049;27;20488;-65
2021/12/05 14:17:32;;;;;;;0.95;0.30;;;13.90;50.70;;;;;;5153256;27;20038;-66
2021/12/05 14:20:19;;;;;;;2.65;0.32;;;13.90;50.70;;;;;;5153290;27;20063;-65
2021/12/05 14:22:47;;;;;;;0.95;0.43;;;13.90;50.80;;;;;;5171445;27;20035;-65
2021/12/05 14:25:17;;;;;;;1.92;0.40;;;13.90;50.80;;;;;;5171631;27;20034;-65
2021/12/05 14:27:47;;;;;;;1.17;0.20;;;13.90;50.70;;;;;;5152695;27;20046;-65
2021/12/05 14:30:19;;;;;;;1.58;0.22;;;13.90;50.70;;;;;;5171627;27;20090;-66
2021/12/05 14:32:46;;;;;;;1.70;0.30;;;13.80;50.80;;;;;;5152732;27;20030;-65
2021/12/05 14:35:18;;;;;;;1.10;0.30;;;13.80;50.80;;;;;;5152678;27;20046;-65
2021/12/05 14:37:46;;;;;;;0.95;0.30;;;13.80;50.80;;;;;;5152612;27;20164;-65
2021/12/05 14:40:16;;;;;;;1.23;0.30;;;13.80;50.80;;;;;;5152540;27;20489;-65
2021/12/05 14:42:48;;;;;;;2.45;0.40;;;13.80;50.90;;;;;;5152591;27;20558;-65
2021/12/05 14:45:19;;;;;;;0.70;0.30;;;13.70;50.80;;;;;;5151958;27;20043;-65
2021/12/05 14:47:46;;;;;;;1.45;0.40;;;13.70;50.90;;;;;;5171065;27;20485;-65
2021/12/05 14:50:15;;;;;;;0.70;0.22;;;13.70;50.90;;;;;;5170915;27;20452;-65
2021/12/05 14:52:44;;;;;;;1.10;0.50;;;13.70;51.00;;;;;;5152339;27;20053;-65
2021/12/05 14:55:13;;;;;;;0.80;0.38;;;13.60;51.10;;;;;;5152166;27;20038;-65
2021/12/05 14:57:45;;;;;;;0.88;0.55;;;13.70;51.10;;;;;;5152526;27;20083;-67
2021/12/05 15:03:14;;;;;;;1.48;0.80;;;13.60;51.10;;;;;;5130254;27;20414;-65
2021/12/05 15:05:42;;;;;;;1.42;0.50;;;13.60;51.10;;;;;;5128908;28;20169;-65
2021/12/05 15:08:12;;;;;;;2.13;0.90;;;13.60;51.10;;;;;;5129434;27;20417;-66
2021/12/05 15:10:44;;;;;;;2.10;1.07;;;13.70;51.10;;;;;;5129095;28;20495;-65
2021/12/05 15:13:11;;;;;;;1.60;0.90;;;13.70;51.10;;;;;;5128708;28;20059;-66
2021/12/05 15:15:37;;;;;;;4.22;0.80;;;13.70;51.10;;;;;;5128927;28;20043;-65
2021/12/05 15:18:05;;;;;;;2.78;0.80;;;13.70;51.10;;;;;;5129224;28;20376;-65
2021/12/05 15:20:33;;;;;;;1.38;0.50;;;13.70;51.00;;;;;;5128506;28;20483;-65
2021/12/05 15:23:10;;;;;;;2.00;0.43;;;13.70;51.00;;;;;;5128651;28;20494;-66
2021/12/05 15:25:39;;;;;;;1.30;0.68;;;13.60;51.00;;;;;;5128618;28;20043;-65
2021/12/05 15:28:07;;;;;;;1.67;0.73;;;13.60;51.10;;;;;;5129805;28;20047;-65
2021/12/05 15:30:37;;;;;;;2.80;0.60;;;13.60;51.20;;;;;;5130179;28;20035;-66
2021/12/05 15:33:07;;;;;;;1.05;0.45;;;13.60;51.10;;;;;;5129971;28;20036;-65
2021/12/05 15:35:37;;;;;;;2.88;1.05;;;13.60;51.10;;;;;;5127751;28;20100;-65
2021/12/05 15:40:45;;;;;;;1.50;0.40;;;13.60;51.20;;;;;;5152455;27;1176758;-65
2021/12/05 15:43:14;;;;;;;1.65;0.80;;;13.60;51.20;;;;;;5171945;27;20166;-65
2021/12/05 15:45:42;;;;;;;2.15;0.50;;;13.60;51.30;;;;;;5153425;27;20546;-65
2021/12/05 15:48:08;;;;;;;2.78;0.60;;;13.60;51.20;;;;;;5153393;27;20049;-65
2021/12/05 15:50:37;;;;;;;2.60;0.77;;;13.60;51.30;;;;;;5152918;27;20648;-65
2021/12/05 15:53:08;;;;;;;2.35;0.80;;;13.60;51.20;;;;;;5153097;27;20042;-65
2021/12/05 15:58:24;;;;;;;1.92;0.85;;;13.60;51.20;;;;;;5130334;27;20780;-65
2021/12/05 16:00:58;;;;;;;3.38;0.82;;;13.60;51.20;;;;;;5128945;27;20549;-65
2021/12/05 16:03:42;;;;;;;1.42;0.68;;;13.70;51.20;;;;;;5129196;28;20126;-65
2021/12/05 16:06:09;;;;;;;1.20;0.47;;;13.60;51.10;;;;;;5129348;28;20046;-66
2021/12/05 16:08:35;;;;;;;1.10;0.50;;;13.60;51.20;;;;;;5129144;28;20040;-65
2021/12/05 16:11:09;;;;;;;1.15;0.50;;;13.60;51.20;;;;;;5129320;27;20057;-66
2021/12/05 16:13:38;;;;;;;1.95;0.70;;;13.60;51.20;;;;;;5128947;28;20086;-65
2021/12/05 16:16:25;;;;;;;1.48;0.50;;;13.60;51.30;;;;;;5128834;28;20039;-65
2021/12/05 16:18:55;;;;;;;1.95;0.60;;;13.60;51.30;;;;;;5129844;27;20092;-66
2021/12/05 16:21:31;;;;;;;1.73;0.60;;;13.60;51.30;;;;;;5129867;28;20031;-65
2021/12/05 16:26:49;;;;;;;1.65;0.47;;;13.70;51.30;;;;;;5150807;27;20360;-65
2021/12/05 16:29:22;;;;;;;1.55;0.57;;;13.80;51.20;;;;;;5129235;28;20081;-65
2021/12/05 16:31:53;;;;;;;0.85;0.63;;;13.80;51.00;;;;;;5129077;28;20039;-66
2021/12/05 16:34:23;;;;;;;0.95;0.65;;;13.90;50.90;;;;;;5128968;28;20047;-65
2021/12/05 16:36:58;;;;;;;2.60;1.10;;;13.80;50.80;;;;;;5129196;28;20070;-65
2021/12/05 16:42:14;;;;;;;1.25;0.60;;;13.80;50.90;;;;;;5193134;27;20177;-65
2021/12/05 16:44:41;;;;;;;0.95;0.63;;;13.80;51.00;;;;;;5170485;27;20565;-65
2021/12/05 16:49:52;;;;;;;0.90;0.60;;;13.80;51.10;;;;;;5130143;27;20436;-65
2021/12/05 16:52:22;;;;;;;1.00;0.50;;;13.80;51.10;;;;;;5130477;27;20061;-65
2021/12/05 16:54:52;;;;;;;2.40;0.70;;;13.70;51.00;;;;;;5129200;28;20122;-65
2021/12/05 16:57:22;;;;;;;3.17;0.80;;;13.80;51.00;;;;;;5128854;28;20288;-65
2021/12/05 16:59:53;;;;;;;1.65;0.75;;;13.80;51.00;;;;;;5146315;27;20043;-65
2021/12/05 17:02:27;;;;;;;2.08;0.93;;;13.80;51.10;;;;;;5128959;28;20058;-65
2021/12/05 17:05:15;;;;;;;1.27;0.60;;;13.80;51.10;;;;;;5128919;28;20031;-65
2021/12/05 17:10:36;;;;;;;1.08;0.70;;;13.70;51.00;;;;;;5150983;27;20293;-65
2021/12/05 17:21:30;;;;;;;2.33;1.02;;;13.70;51.10;;;;;;5130301;27;20873;-65
2021/12/05 17:26:49;;;;;;;1.30;0.73;;;13.70;51.20;;;;;;5130315;27;20358;-65
2021/12/05 17:34:41;;;;;;;1.83;0.98;;;13.60;51.10;;;;;;5130320;27;20353;-65
2021/12/05 17:37:11;;;;;;;1.50;0.90;;;13.60;51.20;;;;;;5129083;28;20270;-65
2021/12/05 17:39:39;;;;;;;1.13;0.83;;;13.60;51.10;;;;;;5129171;28;20058;-65
2021/12/05 17:42:09;;;;;;;1.95;1.13;;;13.60;51.20;;;;;;5129198;28;20051;-65
2021/12/05 17:44:35;;;;;;;0.98;0.70;;;13.60;51.20;;;;;;5130027;27;20069;-65
2021/12/05 17:47:06;;;;;;;1.95;0.82;;;13.60;51.20;;;;;;5128817;28;20463;-66
2021/12/05 17:49:38;;;;;;;2.20;1.08;;;13.60;51.10;;;;;;5129989;27;20035;-66
2021/12/05 17:52:07;;;;;;;1.60;0.90;;;13.60;51.10;;;;;;5130020;27;20039;-65
2021/12/05 17:54:39;;;;;;;2.40;1.08;;;13.60;51.10;;;;;;5129831;27;20042;-65
2021/12/05 17:57:11;;;;;;;1.27;0.70;;;13.70;51.10;;;;;;5128493;27;20039;-65
2021/12/05 18:00:21;;;;;;;1.52;1.40;;;13.70;51.00;;;;;;5128815;28;20047;-66
2021/12/05 18:05:22;;;;;;;3.65;1.67;;;13.70;50.80;;;;;;5109884;27;20919;-65
2021/12/05 18:07:52;;;;;;;1.92;1.23;;;13.70;50.80;;;;;;5108430;28;20052;-66
2021/12/05 18:10:26;;;;;;;1.67;1.00;;;13.80;50.90;;;;;;5108747;28;20028;-66
2021/12/05 18:12:56;;;;;;;2.08;1.20;;;13.70;50.80;;;;;;5108632;28;20047;-66
2021/12/05 18:15:27;;;;;;;1.60;0.90;;;13.70;50.80;;;;;;5108577;28;20043;-65
2021/12/05 18:17:55;;;;;;;2.33;0.98;;;13.70;50.80;;;;;;5108499;28;20518;-65
2021/12/05 18:20:25;;;;;;;3.13;1.33;;;13.80;50.80;;;;;;5109498;28;20039;-65
2021/12/05 18:22:53;;;;;;;1.80;1.15;;;13.70;50.70;;;;;;5108106;28;20054;-66
2021/12/05 18:25:19;;;;;;;1.52;1.08;;;13.70;50.70;;;;;;5109466;28;20039;-65
2021/12/05 18:27:45;;;;;;;2.15;1.13;;;13.70;50.80;;;;;;5108010;28;20403;-65
2021/12/05 18:30:13;;;;;;;2.05;1.48;;;13.70;50.80;;;;;;5108323;28;20035;-65
2021/12/05 18:32:40;;;;;;;1.80;1.48;;;13.70;50.90;;;;;;5109217;28;20097;-65
2021/12/05 18:35:07;;;;;;;3.55;1.88;;;13.70;50.80;;;;;;5108298;28;20071;-65
2021/12/05 18:37:33;;;;;;;3.10;1.52;;;13.70;50.80;;;;;;5109247;28;20363;-65
2021/12/05 18:39:58;;;;;;;4.28;1.73;;;13.70;50.80;;;;;;5109247;28;20289;-65
2021/12/05 18:42:24;;;;;;;2.10;1.33;;;13.80;50.80;;;;;;5109160;28;20434;-66
2021/12/05 18:44:56;;;;;;;2.58;1.80;;;13.80;50.80;;;;;;5107053;28;20368;-65
2021/12/05 18:47:23;;;;;;;2.47;1.30;;;13.80;50.60;;;;;;5107893;28;20050;-65
2021/12/05 18:49:50;;;;;;;2.33;1.42;;;13.90;50.60;;;;;;5107657;28;20490;-66
2021/12/05 18:52:17;;;;;;;2.03;1.45;;;13.90;50.50;;;;;;5107610;28;20487;-67
2021/12/05 18:54:46;;;;;;;2.78;1.83;;;13.90;50.60;;;;;;5107846;28;20052;-65
2021/12/05 18:57:18;;;;;;;2.42;1.70;;;13.80;50.70;;;;;;5107691;28;20052;-65
2021/12/05 18:59:49;;;;;;;6.75;2.50;;;13.80;50.90;;;;;;5107512;28;20083;-66
2021/12/05 19:05:08;;;;;;;2.95;2.17;;;13.80;51.00;;;;;;5106993;28;19924;-66
2021/12/05 19:08:40;;;;;;;1.73;1.50;;;13.80;51.10;;;;;;5107272;28;20059;-65
2021/12/05 19:13:05;;;;;;;4.00;2.55;;;13.70;51.20;;;;;;5107005;28;20079;-66
2021/12/05 19:15:31;;;;;;;3.80;1.90;;;13.70;51.40;;;;;;5099892;28;20251;-65
2021/12/05 19:17:57;;;;;;;2.83;2.10;;;13.70;51.40;;;;;;5093761;28;20086;-65
2021/12/05 19:20:26;;;;;;;3.05;2.63;;;13.70;51.50;;;;;;5093530;28;20541;-66
2021/12/05 19:22:54;;;;;;;3.55;2.35;;;13.70;51.50;;;;;;5093317;28;20059;-65
2021/12/05 19:25:24;;;;;;;3.42;2.58;;;13.70;51.60;;;;;;5094607;28;20448;-65
2021/12/05 19:27:53;;;;;;;5.20;3.00;;;13.70;51.70;;;;;;5093786;28;20040;-65
2021/12/05 19:30:25;;;;;;;3.75;3.15;;;13.60;51.70;;;;;;5093311;28;20040;-65
2021/12/05 19:32:51;;;;;;;4.80;3.53;;;13.60;51.70;;;;;;5093435;28;20111;-65
2021/12/05 19:35:18;;;;;;;6.53;4.25;;;13.60;51.70;;;;;;5092463;28;20036;-65
2021/12/05 19:37:45;;;;;;;4.93;3.05;;;13.60;51.80;;;;;;5092787;28;20472;-66
2021/12/05 19:40:14;;;;;;;5.13;4.50;;;13.60;51.70;;;;;;5094381;28;20051;-66
2021/12/05 19:42:40;;;;;;;4.20;3.78;;;13.60;51.90;;;;;;5093369;28;20028;-66
2021/12/05 19:45:07;;;;;;;6.60;4.80;;;13.60;51.90;;;;;;5094268;28;20048;-65
2021/12/05 19:47:33;;;;;;;5.90;5.30;;;13.60;51.90;;;;;;5093257;28;20035;-65
2021/12/05 19:50:00;;;;;;;4.75;3.22;;;13.60;52.00;;;;;;5094193;28;20395;-66
2021/12/05 19:52:26;;;;;;;7.68;5.32;;;13.60;51.90;;;;;;5094219;28;20081;-66
2021/12/05 19:54:52;;;;;;;5.80;5.20;;;13.60;51.90;;;;;;5092775;28;21101;-65
2021/12/05 19:57:18;;;;;;;6.93;4.88;;;13.60;52.00;;;;;;5093147;28;20124;-65
2021/12/05 19:59:43;;;;;;;6.07;5.38;;;13.60;52.10;;;;;;5094132;28;20039;-66
2021/12/05 20:02:09;;;;;;;6.70;5.35;;;13.60;52.00;;;;;;5094057;28;20047;-65
2021/12/05 20:04:38;;;;;;;6.13;4.57;;;13.60;52.00;;;;;;5093614;28;20110;-65
2021/12/05 20:07:05;;;;;;;7.13;4.88;;;13.50;52.00;;;;;;5092626;28;20391;-66
2021/12/05 20:09:31;;;;;;;6.47;5.00;;;13.50;52.00;;;;;;5092390;28;20074;-65
2021/12/05 20:11:57;;;;;;;7.40;5.50;;;13.60;52.00;;;;;;5093980;28;20043;-65
2021/12/05 20:14:25;;;;;;;7.03;5.78;;;13.50;52.00;;;;;;5093851;28;20081;-66
2021/12/05 20:16:55;;;;;;;7.80;5.38;;;13.60;52.00;;;;;;5092373;28;20046;-65
2021/12/05 20:19:21;;;;;;;7.72;5.95;;;13.60;51.90;;;;;;5093658;28;20039;-66
2021/12/05 20:21:49;;;;;;;6.47;5.82;;;13.60;52.00;;;;;;5092354;28;20385;-65
2021/12/05 20:24:18;;;;;;;7.05;5.80;;;13.50;51.90;;;;;;5092334;28;20407;-65
2021/12/05 20:26:44;;;;;;;8.15;6.15;;;13.60;52.00;;;;;;5091572;28;20040;-65
2021/12/05 20:29:15;;;;;;;6.25;5.45;;;13.50;52.00;;;;;;5092423;28;20484;-65
2021/12/05 20:31:41;;;;;;;9.73;6.20;;;13.50;52.00;;;;;;5092368;28;20086;-65
2021/12/05 20:34:08;;;;;;;7.32;6.13;;;13.60;52.00;;;;;;5092306;28;20043;-65
2021/12/05 20:36:35;;;;;;;8.05;5.30;;;13.50;52.70;;;;;;5093263;28;20070;-65
2021/12/05 20:39:03;;;;;;;6.75;5.35;;;13.50;52.00;;;;;;5093250;28;20474;-65